Time;durP1;ratioP1;P1;durP2;ratioP2;P2;SDS_P1;SDS_P2;PMS_P1;PMS_P2;Temp;Humidity;BMP_temperature;BMP_pressure;BME280_temperature;BME280_humidity;BME280_pressure;Samples;Min_cycle;Max_cycle;Signal;HPM_P1;HPM_P2
2021/03/03 00:01:59;;;;;;;18.80;12.83;;;4.90;99.90;;;;;;4751807;30;20599;-84
2021/03/03 00:04:28;;;;;;;19.03;11.97;;;4.90;99.90;;;;;;4749535;30;20198;-84
2021/03/03 00:06:53;;;;;;;17.03;11.73;;;4.80;99.90;;;;;;4737439;30;20491;-84
2021/03/03 00:09:19;;;;;;;16.70;11.30;;;4.70;99.90;;;;;;4752618;30;21087;-84
2021/03/03 00:11:45;;;;;;;18.90;13.57;;;4.60;99.90;;;;;;4737761;30;20210;-84
2021/03/03 00:14:11;;;;;;;15.83;11.47;;;4.50;99.90;;;;;;4740950;30;20209;-84
2021/03/03 00:16:36;;;;;;;18.23;11.83;;;4.40;99.90;;;;;;4753805;30;20818;-84
2021/03/03 00:19:03;;;;;;;16.80;12.13;;;4.30;99.90;;;;;;4752772;30;20937;-84
2021/03/03 00:21:28;;;;;;;17.70;11.53;;;4.30;99.90;;;;;;4753994;30;20204;-83
2021/03/03 00:23:54;;;;;;;15.33;11.87;;;4.30;99.90;;;;;;4755142;30;20463;-84
2021/03/03 00:26:20;;;;;;;16.60;11.17;;;4.40;99.90;;;;;;4739739;30;20675;-84
2021/03/03 00:28:46;;;;;;;20.67;12.90;;;4.40;99.90;;;;;;4727631;30;20218;-84
2021/03/03 00:31:12;;;;;;;19.20;11.90;;;4.30;99.90;;;;;;4756534;30;20195;-84
2021/03/03 00:33:38;;;;;;;18.73;12.47;;;4.30;99.90;;;;;;4750336;30;20464;-84
2021/03/03 00:36:04;;;;;;;20.37;12.17;;;4.30;99.90;;;;;;4750333;30;20459;-85
2021/03/03 00:38:30;;;;;;;18.60;12.30;;;4.30;99.90;;;;;;4738449;30;20245;-85
2021/03/03 00:40:56;;;;;;;19.60;11.97;;;4.30;99.90;;;;;;4753634;30;20239;-84
2021/03/03 00:43:21;;;;;;;16.93;12.20;;;4.40;99.90;;;;;;4751332;30;20548;-84
2021/03/03 00:45:47;;;;;;;20.90;12.47;;;4.30;99.90;;;;;;4739641;30;20690;-83
2021/03/03 00:48:13;;;;;;;16.40;11.97;;;4.40;99.90;;;;;;4750605;30;20431;-84
2021/03/03 00:50:39;;;;;;;18.23;12.03;;;4.20;99.90;;;;;;4751031;30;20680;-84
2021/03/03 00:53:10;;;;;;;19.40;12.00;;;4.20;99.90;;;;;;4751987;30;20668;-84
2021/03/03 00:55:35;;;;;;;15.20;11.20;;;4.20;99.90;;;;;;4750123;30;20851;-84
2021/03/03 00:58:01;;;;;;;19.83;12.30;;;4.20;99.90;;;;;;4736517;30;20463;-84
2021/03/03 01:00:27;;;;;;;16.80;10.97;;;4.20;99.90;;;;;;4754793;30;20499;-84
2021/03/03 01:02:53;;;;;;;16.90;11.90;;;4.20;99.90;;;;;;4749157;30;20641;-84
2021/03/03 01:05:19;;;;;;;17.30;12.93;;;4.30;99.90;;;;;;4741130;30;20608;-84
2021/03/03 01:07:44;;;;;;;19.07;12.27;;;4.30;99.90;;;;;;4753471;30;20910;-84
2021/03/03 01:10:10;;;;;;;16.90;11.70;;;4.30;99.90;;;;;;4754950;30;20649;-84
2021/03/03 01:12:36;;;;;;;21.07;13.87;;;4.30;99.90;;;;;;4751702;30;20202;-84
2021/03/03 01:15:03;;;;;;;17.33;12.07;;;4.30;99.90;;;;;;4755630;30;20186;-84
2021/03/03 01:17:29;;;;;;;17.60;12.10;;;4.40;99.90;;;;;;4738822;30;20452;-84
2021/03/03 01:19:54;;;;;;;20.60;12.00;;;4.40;99.90;;;;;;4739124;30;20463;-84
2021/03/03 01:22:20;;;;;;;20.80;11.60;;;4.50;99.90;;;;;;4749072;30;20213;-84
2021/03/03 01:24:45;;;;;;;15.27;11.63;;;4.50;99.90;;;;;;4739419;30;20248;-84
2021/03/03 01:27:11;;;;;;;18.63;12.80;;;4.50;99.90;;;;;;4754359;30;20764;-84
2021/03/03 01:29:37;;;;;;;16.83;11.17;;;4.60;99.90;;;;;;4749115;30;20198;-84
2021/03/03 01:32:02;;;;;;;17.87;13.10;;;4.50;99.90;;;;;;4737020;30;20198;-83
2021/03/03 01:34:28;;;;;;;17.93;12.17;;;4.50;99.90;;;;;;4752621;30;20316;-84
2021/03/03 01:36:54;;;;;;;24.13;13.03;;;4.50;99.90;;;;;;4735350;30;20319;-83
2021/03/03 01:39:19;;;;;;;17.17;11.67;;;4.50;99.90;;;;;;4736170;30;20285;-84
2021/03/03 01:41:45;;;;;;;15.33;12.00;;;4.50;99.90;;;;;;4740923;30;20735;-84
2021/03/03 01:44:10;;;;;;;18.50;12.10;;;4.40;99.90;;;;;;4749260;30;20207;-84
2021/03/03 01:46:36;;;;;;;16.30;12.27;;;4.30;99.90;;;;;;4751865;30;20793;-84
2021/03/03 01:49:03;;;;;;;16.40;10.90;;;4.20;99.90;;;;;;4746413;30;20774;-84
2021/03/03 01:51:29;;;;;;;14.30;11.80;;;4.20;99.90;;;;;;4751080;30;20210;-83
2021/03/03 01:53:55;;;;;;;16.93;11.70;;;4.20;99.90;;;;;;4736046;30;20466;-84
2021/03/03 01:56:21;;;;;;;15.60;12.73;;;4.20;99.90;;;;;;4738548;30;20451;-85
2021/03/03 01:58:46;;;;;;;15.73;11.87;;;4.20;99.90;;;;;;4750878;30;20466;-84
2021/03/03 02:01:13;;;;;;;20.93;11.70;;;4.10;99.90;;;;;;4733663;30;21721;-84
2021/03/03 02:03:39;;;;;;;18.60;12.00;;;4.00;99.90;;;;;;4738049;30;20215;-84
2021/03/03 02:06:16;;;;;;;17.07;12.20;;;4.10;99.90;;;;;;4751168;30;20526;-84
2021/03/03 02:08:47;;;;;;;16.57;12.20;;;4.10;99.90;;;;;;4730355;30;20467;-85
2021/03/03 02:11:50;;;;;;;17.43;12.10;;;4.00;99.90;;;;;;4754239;30;20455;-84
2021/03/03 02:14:21;;;;;;;16.10;12.10;;;4.00;99.90;;;;;;4753615;30;21251;-85
2021/03/03 02:16:49;;;;;;;19.77;12.10;;;4.00;99.90;;;;;;4748994;30;21024;-85
2021/03/03 02:19:28;;;;;;;14.47;11.20;;;3.90;99.90;;;;;;4737771;30;20811;-85
2021/03/03 02:22:09;;;;;;;16.23;11.00;;;4.00;99.90;;;;;;4750095;30;20878;-84
2021/03/03 02:24:48;;;;;;;15.87;11.87;;;4.00;99.90;;;;;;4738992;30;20490;-85
2021/03/03 02:27:14;;;;;;;19.00;12.53;;;3.90;99.90;;;;;;4748115;30;22553;-85
2021/03/03 02:29:41;;;;;;;19.80;12.20;;;3.90;99.90;;;;;;4731273;30;20510;-84
2021/03/03 02:32:09;;;;;;;21.80;12.60;;;3.90;99.90;;;;;;4754677;30;20555;-83
2021/03/03 02:34:36;;;;;;;20.30;11.90;;;3.90;99.90;;;;;;4735842;30;20472;-83
2021/03/03 02:37:02;;;;;;;15.37;12.50;;;3.80;99.90;;;;;;4752298;30;20454;-83
2021/03/03 02:39:28;;;;;;;19.53;12.90;;;3.70;99.90;;;;;;4752992;30;20470;-83
2021/03/03 02:41:55;;;;;;;17.40;11.77;;;3.70;99.90;;;;;;4735753;30;20455;-83
2021/03/03 02:44:21;;;;;;;16.87;11.30;;;3.80;99.90;;;;;;4733903;30;20467;-84
2021/03/03 02:46:47;;;;;;;17.97;12.10;;;3.90;99.90;;;;;;4735608;30;20835;-84
2021/03/03 02:49:16;;;;;;;17.80;11.57;;;3.80;99.90;;;;;;4750674;30;20560;-84
2021/03/03 02:51:42;;;;;;;19.63;12.97;;;3.80;99.90;;;;;;4735770;30;20937;-84
2021/03/03 02:54:15;;;;;;;20.53;12.00;;;3.70;99.90;;;;;;4748377;30;20470;-84
2021/03/03 02:56:41;;;;;;;18.47;11.87;;;3.60;99.90;;;;;;4739454;30;20201;-84
2021/03/03 02:59:28;;;;;;;16.13;11.97;;;3.60;99.90;;;;;;4748608;30;20457;-84
2021/03/03 03:01:55;;;;;;;15.93;11.70;;;3.60;99.90;;;;;;4732893;30;20497;-84
2021/03/03 03:04:22;;;;;;;18.30;12.13;;;3.50;99.90;;;;;;4748023;30;20471;-84
2021/03/03 03:06:48;;;;;;;18.30;11.83;;;3.50;99.90;;;;;;4751779;30;20485;-84
2021/03/03 03:09:17;;;;;;;19.23;11.87;;;3.50;99.90;;;;;;4735462;30;20830;-83
2021/03/03 03:11:50;;;;;;;20.30;12.23;;;3.50;99.90;;;;;;4748698;30;20456;-84
2021/03/03 03:14:20;;;;;;;20.53;12.47;;;3.50;99.90;;;;;;4745321;30;20502;-84
2021/03/03 03:16:47;;;;;;;20.33;11.87;;;3.50;99.90;;;;;;4749635;30;20474;-84
2021/03/03 03:19:18;;;;;;;17.57;12.43;;;3.50;99.90;;;;;;4735604;30;20470;-84
2021/03/03 03:21:46;;;;;;;19.70;12.30;;;3.50;99.90;;;;;;4736874;30;20490;-84
2021/03/03 03:24:16;;;;;;;20.73;12.93;;;3.50;99.90;;;;;;4747876;30;20468;-84
2021/03/03 03:26:42;;;;;;;20.03;12.20;;;3.50;99.90;;;;;;4752311;30;20478;-84
2021/03/03 03:29:09;;;;;;;18.37;13.03;;;3.50;99.90;;;;;;4749128;30;20459;-84
2021/03/03 03:31:38;;;;;;;20.90;13.60;;;3.60;99.90;;;;;;4748973;30;20559;-84
2021/03/03 03:34:05;;;;;;;19.03;12.00;;;3.70;99.90;;;;;;4734093;30;20463;-84
2021/03/03 03:36:31;;;;;;;16.30;12.33;;;3.80;99.90;;;;;;4732559;30;20521;-85
2021/03/03 03:38:57;;;;;;;19.00;11.60;;;3.70;99.90;;;;;;4751328;30;20463;-84
2021/03/03 03:41:24;;;;;;;19.90;12.73;;;3.60;99.90;;;;;;4737748;30;20459;-85
2021/03/03 03:43:52;;;;;;;21.93;12.33;;;3.50;99.90;;;;;;4750024;30;20209;-85
2021/03/03 03:46:17;;;;;;;15.57;11.87;;;3.50;99.90;;;;;;4750577;30;20471;-85
2021/03/03 03:48:43;;;;;;;17.67;12.23;;;3.40;99.90;;;;;;4736301;30;20498;-86
2021/03/03 03:51:09;;;;;;;18.37;13.00;;;3.40;99.90;;;;;;4749040;30;20213;-85
2021/03/03 03:53:35;;;;;;;22.47;12.53;;;3.30;99.90;;;;;;4749939;30;20252;-85
2021/03/03 03:56:01;;;;;;;22.00;14.87;;;3.30;99.90;;;;;;4735048;30;20197;-84
2021/03/03 03:58:27;;;;;;;21.30;12.50;;;3.30;99.90;;;;;;4735369;30;20828;-84
2021/03/03 04:00:53;;;;;;;19.87;12.40;;;3.20;99.90;;;;;;4747216;30;20563;-84
2021/03/03 04:03:18;;;;;;;18.67;11.30;;;3.10;99.90;;;;;;4752498;30;20572;-84
2021/03/03 04:05:44;;;;;;;17.47;11.77;;;3.20;99.90;;;;;;4737726;30;20456;-84
2021/03/03 04:08:12;;;;;;;19.23;12.33;;;3.20;99.90;;;;;;4753400;30;20595;-84
2021/03/03 04:10:38;;;;;;;16.87;11.40;;;3.30;99.90;;;;;;4736318;30;21644;-84
2021/03/03 04:13:04;;;;;;;16.57;11.67;;;3.30;99.90;;;;;;4738192;30;22768;-84
2021/03/03 04:15:30;;;;;;;18.33;13.03;;;3.30;99.90;;;;;;4753886;30;20704;-84
2021/03/03 04:17:56;;;;;;;20.43;13.50;;;3.40;99.90;;;;;;4739097;30;20458;-85
2021/03/03 04:20:22;;;;;;;18.57;12.87;;;3.30;99.90;;;;;;4754429;30;20286;-85
2021/03/03 04:22:48;;;;;;;18.13;12.87;;;3.40;99.90;;;;;;4750511;30;20467;-85
2021/03/03 04:25:16;;;;;;;19.80;11.67;;;3.30;99.90;;;;;;4753797;30;20284;-85
2021/03/03 04:27:42;;;;;;;16.90;12.00;;;3.40;99.90;;;;;;4755215;30;20590;-84
2021/03/03 04:30:14;;;;;;;16.13;11.80;;;3.40;99.90;;;;;;4737479;30;20469;-85
2021/03/03 04:32:39;;;;;;;17.50;12.20;;;3.30;99.90;;;;;;4736376;30;20463;-84
2021/03/03 04:35:06;;;;;;;14.00;10.93;;;3.30;99.90;;;;;;4754498;30;20451;-84
2021/03/03 04:37:33;;;;;;;20.17;12.97;;;3.30;99.90;;;;;;4737931;30;20324;-85
2021/03/03 04:39:58;;;;;;;15.23;11.80;;;3.30;99.90;;;;;;4739088;30;20505;-85
2021/03/03 04:42:24;;;;;;;19.07;12.47;;;3.30;99.90;;;;;;4734967;30;20899;-84
2021/03/03 04:44:50;;;;;;;17.53;11.47;;;3.30;99.90;;;;;;4738752;30;20467;-84
2021/03/03 04:47:16;;;;;;;16.73;12.53;;;3.30;99.90;;;;;;4753546;30;21021;-85
2021/03/03 04:49:41;;;;;;;16.40;11.80;;;3.30;99.90;;;;;;4752808;30;20294;-84
2021/03/03 04:52:07;;;;;;;17.00;13.60;;;3.30;99.90;;;;;;4750301;30;20666;-85
2021/03/03 04:54:34;;;;;;;18.60;13.00;;;3.20;99.90;;;;;;4737632;30;20217;-85
2021/03/03 04:57:01;;;;;;;19.37;12.70;;;3.20;99.90;;;;;;4751736;30;20213;-85
2021/03/03 04:59:26;;;;;;;18.43;13.27;;;3.20;99.90;;;;;;4737036;30;20448;-83
2021/03/03 05:01:52;;;;;;;17.63;12.40;;;3.20;99.90;;;;;;4733000;30;20479;-88
2021/03/03 05:04:18;;;;;;;17.63;12.47;;;3.20;99.90;;;;;;4746731;30;20193;-85
2021/03/03 05:06:43;;;;;;;16.83;12.20;;;3.30;99.90;;;;;;4744174;30;20399;-85
2021/03/03 05:09:09;;;;;;;15.53;11.53;;;3.30;99.90;;;;;;4728291;30;20849;-84
2021/03/03 05:11:35;;;;;;;17.17;11.53;;;3.30;99.90;;;;;;4743230;30;20683;-84
2021/03/03 05:14:00;;;;;;;13.70;11.43;;;3.30;99.90;;;;;;4743295;30;20208;-85
2021/03/03 05:16:26;;;;;;;18.77;12.27;;;3.30;99.90;;;;;;4738859;30;20212;-86
2021/03/03 05:18:52;;;;;;;18.33;11.80;;;3.30;99.90;;;;;;4725906;30;20200;-85
2021/03/03 05:21:17;;;;;;;16.37;12.67;;;3.20;99.90;;;;;;4741887;30;20612;-84
2021/03/03 05:23:43;;;;;;;21.03;13.27;;;3.10;99.90;;;;;;4736262;30;20232;-84
2021/03/03 05:26:08;;;;;;;18.23;12.50;;;3.10;99.90;;;;;;4748445;30;20205;-85
2021/03/03 05:28:34;;;;;;;17.30;11.73;;;3.10;99.90;;;;;;4751910;30;20703;-85
2021/03/03 05:31:00;;;;;;;22.13;13.77;;;3.10;99.90;;;;;;4750496;30;20189;-85
2021/03/03 05:33:28;;;;;;;24.90;15.63;;;3.10;99.90;;;;;;4748947;30;20271;-85
2021/03/03 05:35:58;;;;;;;21.00;14.50;;;3.10;99.90;;;;;;4733412;30;20464;-85
2021/03/03 05:38:24;;;;;;;21.60;13.80;;;3.10;99.90;;;;;;4731530;30;20520;-84
2021/03/03 05:40:51;;;;;;;22.00;15.70;;;3.10;99.90;;;;;;4749900;30;21022;-85
2021/03/03 05:43:20;;;;;;;22.07;14.13;;;3.10;99.90;;;;;;4734500;30;20467;-85
2021/03/03 05:45:47;;;;;;;20.73;13.20;;;3.10;99.90;;;;;;4734463;30;20475;-85
2021/03/03 05:48:37;;;;;;;20.23;14.20;;;3.10;99.90;;;;;;4743365;30;20717;-84
2021/03/03 05:51:04;;;;;;;20.90;13.70;;;3.10;99.90;;;;;;4737285;30;20469;-85
2021/03/03 05:53:32;;;;;;;18.97;13.20;;;3.10;99.90;;;;;;4747864;30;20495;-84
2021/03/03 05:55:59;;;;;;;21.20;14.13;;;3.10;99.90;;;;;;4745265;30;20594;-84
2021/03/03 05:58:27;;;;;;;19.07;11.97;;;3.10;99.90;;;;;;4740388;30;20459;-84
2021/03/03 06:00:56;;;;;;;24.83;14.77;;;3.20;99.90;;;;;;4734258;30;20458;-83
2021/03/03 06:03:23;;;;;;;20.87;14.47;;;3.10;99.90;;;;;;4732260;30;20562;-85
2021/03/03 06:05:49;;;;;;;18.07;12.60;;;3.10;99.90;;;;;;4735576;30;20758;-86
2021/03/03 06:08:15;;;;;;;20.13;12.97;;;3.00;99.90;;;;;;4753453;30;20517;-85
2021/03/03 06:10:42;;;;;;;19.07;13.73;;;2.90;99.90;;;;;;4751515;30;20200;-87
2021/03/03 06:13:07;;;;;;;17.70;12.10;;;2.90;99.90;;;;;;4753216;30;20545;-87
2021/03/03 06:15:33;;;;;;;21.50;12.60;;;3.00;99.90;;;;;;4739632;30;21065;-87
2021/03/03 06:17:59;;;;;;;16.10;12.27;;;3.00;99.90;;;;;;4753519;30;20514;-87
2021/03/03 06:20:25;;;;;;;22.23;13.47;;;3.00;99.90;;;;;;4751800;30;20274;-88
2021/03/03 06:22:51;;;;;;;24.47;13.80;;;3.00;99.90;;;;;;4749996;30;20251;-88
2021/03/03 06:25:24;;;;;;;21.03;12.97;;;3.10;99.90;;;;;;4737022;30;20462;-89
2021/03/03 06:27:49;;;;;;;20.43;13.20;;;3.10;99.90;;;;;;4752836;30;20283;-87
2021/03/03 06:30:17;;;;;;;21.03;12.50;;;3.10;99.90;;;;;;4751500;30;20455;-87
2021/03/03 06:33:06;;;;;;;18.57;13.40;;;3.10;99.90;;;;;;4753211;30;20860;-87
2021/03/03 06:35:43;;;;;;;23.00;12.43;;;3.10;99.90;;;;;;4753800;30;20487;-87
2021/03/03 06:38:11;;;;;;;15.60;11.70;;;3.10;99.90;;;;;;4752820;30;20466;-87
2021/03/03 06:41:06;;;;;;;19.73;13.03;;;3.20;99.90;;;;;;4750933;30;20463;-87
2021/03/03 06:43:32;;;;;;;22.30;13.10;;;3.20;99.90;;;;;;4751932;30;20472;-88
2021/03/03 06:46:15;;;;;;;19.40;13.50;;;3.20;99.90;;;;;;4752834;30;20475;-86
2021/03/03 06:48:42;;;;;;;18.13;12.83;;;3.30;99.90;;;;;;4752202;30;20495;-86
2021/03/03 06:51:29;;;;;;;18.83;11.77;;;3.40;99.90;;;;;;4751903;30;20463;-87
2021/03/03 06:53:57;;;;;;;18.10;12.33;;;3.30;99.90;;;;;;4734015;30;20478;-87
2021/03/03 06:56:42;;;;;;;17.63;12.53;;;3.40;99.90;;;;;;4735648;30;20466;-88
2021/03/03 06:59:09;;;;;;;18.30;11.90;;;3.40;99.90;;;;;;4735820;30;21275;-87
2021/03/03 07:01:35;;;;;;;24.23;13.40;;;3.50;99.90;;;;;;4746939;30;20456;-89
2021/03/03 07:04:21;;;;;;;41.13;30.93;;;3.60;99.90;;;;;;4736695;30;20545;-87
2021/03/03 07:06:48;;;;;;;21.13;15.03;;;3.60;99.90;;;;;;4738861;30;21002;-83
2021/03/03 07:09:14;;;;;;;19.93;12.60;;;3.80;99.90;;;;;;4721325;30;20489;-84
2021/03/03 07:11:41;;;;;;;17.97;14.00;;;3.90;99.90;;;;;;4740412;30;20463;-84
2021/03/03 07:14:20;;;;;;;17.83;12.83;;;3.80;99.90;;;;;;4725144;30;21561;-85
2021/03/03 07:17:09;;;;;;;19.90;12.40;;;3.90;99.90;;;;;;4740745;30;20459;-85
2021/03/03 07:19:37;;;;;;;20.60;12.27;;;3.90;99.90;;;;;;4735992;30;20503;-84
2021/03/03 07:22:06;;;;;;;19.80;12.77;;;3.90;99.90;;;;;;4746928;30;20526;-83
2021/03/03 07:24:34;;;;;;;17.30;13.10;;;3.90;99.90;;;;;;4750758;30;20543;-84
2021/03/03 07:27:02;;;;;;;17.20;12.60;;;3.80;99.90;;;;;;4749966;30;20872;-84
2021/03/03 07:29:29;;;;;;;19.90;13.00;;;3.80;99.90;;;;;;4748810;30;20714;-84
2021/03/03 07:31:56;;;;;;;15.13;11.50;;;3.80;99.90;;;;;;4747337;30;20463;-84
2021/03/03 07:34:22;;;;;;;19.50;12.43;;;3.70;99.90;;;;;;4747333;30;20454;-84
2021/03/03 07:36:51;;;;;;;22.30;13.10;;;3.80;99.90;;;;;;4750901;30;21705;-83
2021/03/03 07:39:18;;;;;;;17.13;12.60;;;3.80;99.90;;;;;;4746884;30;20581;-84
2021/03/03 07:41:46;;;;;;;19.00;13.23;;;3.80;99.90;;;;;;4753351;30;21345;-83
2021/03/03 07:44:17;;;;;;;19.60;13.10;;;3.80;99.90;;;;;;4748680;30;20444;-84
2021/03/03 07:46:47;;;;;;;18.73;12.83;;;3.80;99.90;;;;;;4752783;30;20463;-83
2021/03/03 07:49:17;;;;;;;16.27;12.27;;;3.80;99.90;;;;;;4752384;30;20485;-83
2021/03/03 07:51:43;;;;;;;20.53;13.73;;;4.00;99.90;;;;;;4757606;30;20543;-84
2021/03/03 07:54:13;;;;;;;21.57;13.73;;;4.10;99.90;;;;;;4751054;30;20550;-83
2021/03/03 07:56:40;;;;;;;24.30;14.07;;;4.20;99.90;;;;;;4738673;30;20248;-84
2021/03/03 07:59:10;;;;;;;18.87;13.30;;;4.20;99.90;;;;;;4754892;30;20824;-85
2021/03/03 08:01:36;;;;;;;18.80;12.77;;;4.20;99.90;;;;;;4751760;30;20455;-84
2021/03/03 08:04:03;;;;;;;19.63;12.67;;;4.20;99.90;;;;;;4752067;30;20988;-84
2021/03/03 08:06:35;;;;;;;18.20;13.40;;;4.30;99.90;;;;;;4740496;30;20503;-84
2021/03/03 08:09:09;;;;;;;19.87;13.77;;;4.30;99.90;;;;;;4753179;30;20516;-84
2021/03/03 08:11:35;;;;;;;19.40;13.20;;;4.30;99.90;;;;;;4753035;30;20466;-85
2021/03/03 08:14:02;;;;;;;20.33;15.27;;;4.40;99.90;;;;;;4750651;30;20534;-85
2021/03/03 08:16:28;;;;;;;19.00;13.77;;;4.60;99.90;;;;;;4753264;30;20543;-85
2021/03/03 08:18:58;;;;;;;25.50;14.60;;;4.70;99.90;;;;;;4752466;30;20452;-84
2021/03/03 08:21:30;;;;;;;20.70;13.80;;;4.70;99.90;;;;;;4755493;30;20526;-84
2021/03/03 08:23:59;;;;;;;20.73;14.03;;;4.70;99.90;;;;;;4755546;30;20458;-84
2021/03/03 08:26:28;;;;;;;22.43;14.67;;;4.80;99.90;;;;;;4753165;30;20542;-85
2021/03/03 08:29:14;;;;;;;21.73;15.13;;;4.80;99.90;;;;;;4737551;30;20600;-84
2021/03/03 08:31:40;;;;;;;18.87;13.90;;;4.90;99.90;;;;;;4738357;30;20447;-83
2021/03/03 08:34:09;;;;;;;18.77;13.57;;;5.10;99.90;;;;;;4751088;30;20468;-84
2021/03/03 08:36:35;;;;;;;21.60;15.23;;;5.20;99.90;;;;;;4752783;30;20831;-85
2021/03/03 08:39:02;;;;;;;19.83;13.53;;;5.20;99.90;;;;;;4736186;30;20457;-85
2021/03/03 08:41:34;;;;;;;19.23;15.27;;;5.20;99.90;;;;;;4737965;30;20459;-85
2021/03/03 08:44:13;;;;;;;22.23;16.20;;;5.30;99.90;;;;;;4738067;30;20592;-85
2021/03/03 08:46:39;;;;;;;23.03;16.07;;;5.40;99.90;;;;;;4755597;30;20822;-84
2021/03/03 08:49:05;;;;;;;22.40;14.43;;;5.50;99.90;;;;;;4738318;30;20477;-84
2021/03/03 08:51:37;;;;;;;25.37;15.23;;;5.60;99.90;;;;;;4741071;30;20212;-85
2021/03/03 08:54:05;;;;;;;20.67;15.17;;;5.80;99.90;;;;;;4741935;30;20198;-85
2021/03/03 08:56:43;;;;;;;19.97;14.60;;;5.80;99.90;;;;;;4755097;30;20835;-87
2021/03/03 08:59:09;;;;;;;27.70;15.67;;;5.70;99.90;;;;;;4741663;30;20562;-88
2021/03/03 09:02:02;;;;;;;23.53;14.57;;;5.80;99.90;;;;;;4737220;30;20539;-88
2021/03/03 09:04:44;;;;;;;19.50;14.93;;;6.00;99.90;;;;;;4739367;30;20213;-88
2021/03/03 09:07:26;;;;;;;28.27;15.40;;;6.20;99.90;;;;;;4754722;30;20503;-88
2021/03/03 09:09:53;;;;;;;20.13;14.70;;;6.30;99.90;;;;;;4740091;30;21148;-87
2021/03/03 09:12:21;;;;;;;22.13;15.07;;;6.30;99.90;;;;;;4753842;30;20881;-87
2021/03/03 09:14:49;;;;;;;20.47;14.63;;;6.30;99.90;;;;;;4755665;30;20584;-87
2021/03/03 09:17:26;;;;;;;22.23;16.03;;;6.20;99.90;;;;;;4752275;30;20885;-87
2021/03/03 09:19:54;;;;;;;20.03;14.53;;;6.20;99.90;;;;;;4750349;30;20531;-87
2021/03/03 09:22:31;;;;;;;24.83;14.80;;;6.50;99.90;;;;;;4751729;30;20541;-88
2021/03/03 09:25:08;;;;;;;23.90;14.27;;;6.50;99.90;;;;;;4752300;30;20487;-89
2021/03/03 09:27:34;;;;;;;24.00;14.80;;;6.60;99.90;;;;;;4736519;30;21478;-86
2021/03/03 09:30:00;;;;;;;20.23;14.63;;;6.70;99.90;;;;;;4753801;30;20545;-91
2021/03/03 09:32:26;;;;;;;19.57;14.13;;;6.60;99.90;;;;;;4755376;30;20459;-88
2021/03/03 09:34:53;;;;;;;21.90;16.23;;;6.90;99.90;;;;;;4755462;30;20459;-83
2021/03/03 09:37:45;;;;;;;17.93;13.27;;;7.10;99.90;;;;;;4752875;30;20262;-84
2021/03/03 09:40:45;;;;;;;20.93;14.17;;;7.10;99.90;;;;;;4750133;30;20459;-85
2021/03/03 09:43:46;;;;;;;24.93;15.37;;;7.20;99.90;;;;;;4735126;30;20455;-91
2021/03/03 09:46:12;;;;;;;22.33;16.03;;;7.30;99.90;;;;;;4737779;30;20451;-86
2021/03/03 09:48:38;;;;;;;20.40;15.77;;;7.50;99.90;;;;;;4757990;30;21248;-86
2021/03/03 09:51:04;;;;;;;25.37;14.53;;;7.60;99.90;;;;;;4752859;30;20226;-86
2021/03/03 09:53:54;;;;;;;25.13;15.90;;;7.80;99.90;;;;;;4754160;30;20216;-86
2021/03/03 09:56:45;;;;;;;20.90;14.80;;;7.90;99.90;;;;;;4738100;30;20465;-88
2021/03/03 09:59:45;;;;;;;25.53;16.60;;;7.90;99.90;;;;;;4738415;30;20458;-87
2021/03/03 10:02:47;;;;;;;17.90;14.13;;;7.80;99.90;;;;;;4735438;30;20794;-88
2021/03/03 10:05:52;;;;;;;28.03;15.30;;;8.10;99.90;;;;;;4732341;30;20480;-86
2021/03/03 10:08:46;;;;;;;20.70;15.03;;;8.30;99.90;;;;;;4752738;30;21035;-84
2021/03/03 10:11:12;;;;;;;23.33;15.73;;;8.40;99.60;;;;;;4735932;30;20508;-84
2021/03/03 10:13:47;;;;;;;23.27;15.80;;;8.50;99.50;;;;;;4750734;30;20451;-85
2021/03/03 10:19:44;;;;;;;17.33;14.50;;;8.30;99.90;;;;;;4750431;30;20533;-84
2021/03/03 10:22:10;;;;;;;25.17;15.73;;;8.40;99.40;;;;;;4735161;30;20473;-85
2021/03/03 10:24:36;;;;;;;20.53;15.03;;;8.60;99.60;;;;;;4756993;30;20445;-85
2021/03/03 10:27:02;;;;;;;19.53;15.63;;;8.70;99.50;;;;;;4753797;30;21041;-84
2021/03/03 10:29:39;;;;;;;18.03;14.73;;;8.80;99.10;;;;;;4754221;30;20191;-85
2021/03/03 10:32:13;;;;;;;16.70;14.30;;;8.80;98.40;;;;;;4751895;30;20201;-87
2021/03/03 10:34:45;;;;;;;19.23;13.90;;;9.10;98.00;;;;;;4740156;30;20447;-85
2021/03/03 10:37:45;;;;;;;21.27;15.30;;;9.40;97.00;;;;;;4742629;30;20467;-90
2021/03/03 10:40:47;;;;;;;22.53;14.63;;;9.70;96.40;;;;;;4756961;30;20455;-89
2021/03/03 10:43:48;;;;;;;24.83;14.97;;;9.60;95.40;;;;;;4752144;30;20494;-86
2021/03/03 10:46:17;;;;;;;17.47;13.80;;;9.70;94.50;;;;;;4748103;30;20458;-87
2021/03/03 10:48:43;;;;;;;24.97;13.83;;;9.50;94.60;;;;;;4750644;30;20866;-86
2021/03/03 10:51:11;;;;;;;17.30;13.70;;;9.70;94.80;;;;;;4750013;30;20474;-85
2021/03/03 10:53:54;;;;;;;19.03;15.67;;;9.60;94.70;;;;;;4750641;30;20614;-87
2021/03/03 10:56:27;;;;;;;18.30;13.80;;;9.60;95.00;;;;;;4740323;30;20501;-87
2021/03/03 10:59:24;;;;;;;29.20;25.50;;;10.00;94.30;;;;;;4743668;30;20459;-88
2021/03/03 11:02:01;;;;;;;18.60;13.77;;;10.30;93.40;;;;;;4754473;30;20444;-83
2021/03/03 11:04:47;;;;;;;17.17;14.63;;;10.50;92.70;;;;;;4754475;30;20464;-83
2021/03/03 11:07:14;;;;;;;22.07;14.80;;;10.60;91.40;;;;;;4737653;30;20701;-83
2021/03/03 11:09:40;;;;;;;17.13;14.03;;;10.70;91.10;;;;;;4738434;30;20519;-85
2021/03/03 11:12:07;;;;;;;18.33;12.97;;;11.00;90.40;;;;;;4750062;30;20453;-83
2021/03/03 11:14:34;;;;;;;16.70;13.13;;;11.00;86.60;;;;;;4744364;30;20250;-82
2021/03/03 11:17:02;;;;;;;15.83;12.50;;;11.10;85.00;;;;;;4736251;30;20804;-84
2021/03/03 11:19:46;;;;;;;14.73;11.40;;;11.20;82.30;;;;;;4750032;30;20461;-83
2021/03/03 11:22:45;;;;;;;13.63;11.40;;;10.70;80.00;;;;;;4752710;30;20468;-83
2021/03/03 11:25:11;;;;;;;15.50;11.20;;;10.90;79.80;;;;;;4747797;30;20476;-83
2021/03/03 11:27:37;;;;;;;18.83;11.43;;;10.90;79.30;;;;;;4749220;30;20517;-83
2021/03/03 11:30:03;;;;;;;15.10;12.10;;;11.20;79.50;;;;;;4752698;30;20962;-83
2021/03/03 11:32:29;;;;;;;16.77;12.10;;;11.50;79.20;;;;;;4753435;30;20307;-86
2021/03/03 11:34:54;;;;;;;14.23;11.80;;;11.90;75.70;;;;;;4753321;30;20511;-86
2021/03/03 11:37:20;;;;;;;17.20;12.63;;;11.80;73.00;;;;;;4758233;30;20560;-86
2021/03/03 11:39:46;;;;;;;14.30;11.83;;;11.90;70.80;;;;;;4758033;30;20319;-85
2021/03/03 11:42:12;;;;;;;15.53;11.27;;;12.10;71.90;;;;;;4733366;30;20206;-85
2021/03/03 11:44:46;;;;;;;16.73;11.17;;;12.40;68.40;;;;;;4754902;30;20307;-85
2021/03/03 11:47:46;;;;;;;13.90;11.17;;;12.70;67.10;;;;;;4743210;30;20642;-84
2021/03/03 11:50:46;;;;;;;19.83;12.10;;;12.80;65.00;;;;;;4746461;30;20467;-85
2021/03/03 11:53:11;;;;;;;18.70;12.53;;;12.80;60.20;;;;;;4736446;30;20476;-85
2021/03/03 11:55:37;;;;;;;18.47;12.57;;;12.40;62.30;;;;;;4736535;30;20451;-87
2021/03/03 11:58:03;;;;;;;16.40;12.70;;;12.60;65.00;;;;;;4755173;30;20707;-85
2021/03/03 12:00:29;;;;;;;14.67;11.73;;;12.80;66.60;;;;;;4751158;30;20210;-85
2021/03/03 12:02:54;;;;;;;18.73;12.37;;;12.90;67.50;;;;;;4738111;30;20217;-87
2021/03/03 12:05:45;;;;;;;20.00;13.83;;;13.20;66.20;;;;;;4754624;30;20474;-89
2021/03/03 12:08:45;;;;;;;16.77;13.57;;;13.10;64.80;;;;;;4756381;30;20646;-88
2021/03/03 12:11:10;;;;;;;15.60;13.90;;;13.10;65.80;;;;;;4751567;30;20478;-92
2021/03/03 12:13:39;;;;;;;18.40;12.70;;;13.20;64.00;;;;;;4733735;30;20718;-91
2021/03/03 12:16:05;;;;;;;17.67;13.47;;;13.40;63.00;;;;;;4719744;30;20508;-91
2021/03/03 12:18:33;;;;;;;17.73;14.47;;;13.60;62.50;;;;;;4744460;30;20459;-92
2021/03/03 12:21:00;;;;;;;17.20;12.70;;;13.80;60.80;;;;;;4740604;30;20858;-90
2021/03/03 12:23:26;;;;;;;19.37;13.20;;;14.00;58.70;;;;;;4755109;30;20489;-88
2021/03/03 12:25:52;;;;;;;16.90;12.37;;;14.20;58.30;;;;;;4756772;30;20463;-87
2021/03/03 12:28:17;;;;;;;17.60;12.30;;;14.40;59.60;;;;;;4759061;30;20276;-93
2021/03/03 12:30:46;;;;;;;15.40;12.50;;;14.50;60.60;;;;;;4755403;30;20668;-90
2021/03/03 12:33:12;;;;;;;14.50;12.37;;;14.40;59.20;;;;;;4753278;30;20205;-88
2021/03/03 12:35:37;;;;;;;15.00;11.93;;;14.40;55.40;;;;;;4757104;30;20455;-87
2021/03/03 12:38:03;;;;;;;18.37;13.07;;;14.50;57.30;;;;;;4757666;30;20814;-87
2021/03/03 12:40:29;;;;;;;18.47;13.73;;;14.70;57.30;;;;;;4736536;30;20213;-86
2021/03/03 12:42:54;;;;;;;14.93;12.83;;;14.70;57.60;;;;;;4750987;30;20205;-86
2021/03/03 12:45:20;;;;;;;16.07;12.77;;;14.60;57.90;;;;;;4735634;30;20197;-85
2021/03/03 12:47:46;;;;;;;19.63;14.00;;;14.40;57.10;;;;;;4753644;30;20229;-86
2021/03/03 12:50:46;;;;;;;16.73;13.40;;;14.40;58.10;;;;;;4731428;30;20767;-87
2021/03/03 12:53:12;;;;;;;17.30;13.97;;;14.30;58.10;;;;;;4746088;30;20205;-87
2021/03/03 12:55:38;;;;;;;19.63;13.50;;;14.50;57.00;;;;;;4736347;30;20541;-87